Time;durP1;ratioP1;P1;durP2;ratioP2;P2;SDS_P1;SDS_P2;PMS_P1;PMS_P2;Temp;Humidity;BMP_temperature;BMP_pressure;BME280_temperature;BME280_humidity;BME280_pressure;Samples;Min_cycle;Max_cycle;Signal;HPM_P1;HPM_P2
2024/01/05 00:01:23;;;;;;;25.90;11.80;;;3.70;99.90;;;;;;5074961;28;20381;-79
2024/01/05 00:03:48;;;;;;;23.33;10.97;;;3.70;99.90;;;;;;5092674;28;20051;-79
2024/01/05 00:06:14;;;;;;;18.97;11.00;;;3.70;99.90;;;;;;5092996;28;20047;-80
2024/01/05 00:08:40;;;;;;;25.07;12.23;;;3.70;99.90;;;;;;5091172;28;20127;-80
2024/01/05 00:11:05;;;;;;;23.80;11.73;;;3.70;99.90;;;;;;5090937;28;20085;-80
2024/01/05 00:13:31;;;;;;;22.23;11.77;;;3.70;99.90;;;;;;5090908;28;20080;-81
2024/01/05 00:15:57;;;;;;;31.63;12.80;;;3.70;99.90;;;;;;5090611;28;20124;-81
2024/01/05 00:18:23;;;;;;;26.73;12.67;;;3.70;99.90;;;;;;5089532;28;20036;-81
2024/01/05 00:20:48;;;;;;;27.57;11.90;;;3.70;99.90;;;;;;5089779;28;20050;-81
2024/01/05 00:23:14;;;;;;;23.70;13.67;;;3.70;99.90;;;;;;5090931;28;20047;-80
2024/01/05 00:25:40;;;;;;;26.00;12.83;;;3.70;99.90;;;;;;5095712;28;20044;-80
2024/01/05 00:28:06;;;;;;;25.27;12.37;;;3.60;99.90;;;;;;5096801;28;20050;-81
2024/01/05 00:30:34;;;;;;;34.47;12.80;;;3.60;99.90;;;;;;5096648;28;20032;-80
2024/01/05 00:33:00;;;;;;;27.60;12.63;;;3.60;99.90;;;;;;5096690;28;20079;-80
2024/01/05 00:35:26;;;;;;;25.40;12.90;;;3.60;99.90;;;;;;5079089;28;20484;-80
2024/01/05 00:37:52;;;;;;;27.60;14.20;;;3.60;99.90;;;;;;5095368;28;20051;-80
2024/01/05 00:40:17;;;;;;;23.27;13.00;;;3.70;99.90;;;;;;5096676;28;20039;-81
2024/01/05 00:42:43;;;;;;;25.70;13.77;;;3.60;99.90;;;;;;5096577;28;20055;-80
2024/01/05 00:45:09;;;;;;;27.10;13.67;;;3.60;99.90;;;;;;5096303;28;20048;-80
2024/01/05 00:47:35;;;;;;;26.27;14.03;;;3.60;99.90;;;;;;5096608;28;20044;-80
2024/01/05 00:50:01;;;;;;;25.67;13.00;;;3.60;99.90;;;;;;5096198;28;20294;-80
2024/01/05 00:52:27;;;;;;;24.90;12.77;;;3.60;99.90;;;;;;5096391;28;20089;-80
2024/01/05 00:54:52;;;;;;;26.23;14.03;;;3.60;99.90;;;;;;5095065;28;20081;-80
2024/01/05 00:57:18;;;;;;;26.07;14.13;;;3.60;99.90;;;;;;5096434;28;20110;-81
2024/01/05 00:59:44;;;;;;;22.90;13.63;;;3.50;99.90;;;;;;5096040;28;20105;-79
2024/01/05 01:02:10;;;;;;;23.73;14.60;;;3.60;99.90;;;;;;5096298;28;20139;-80
2024/01/05 01:04:35;;;;;;;24.73;13.63;;;3.60;99.90;;;;;;5096277;28;20074;-80
2024/01/05 01:07:01;;;;;;;28.43;13.77;;;3.60;99.90;;;;;;5096019;28;20067;-80
2024/01/05 01:09:26;;;;;;;21.23;13.53;;;3.60;99.90;;;;;;5094896;28;20040;-81
2024/01/05 01:11:53;;;;;;;27.10;13.60;;;3.50;99.90;;;;;;5095854;28;20118;-81
2024/01/05 01:14:18;;;;;;;28.63;13.68;;;3.50;99.90;;;;;;5095793;28;20485;-80
2024/01/05 01:16:44;;;;;;;26.33;14.97;;;3.50;99.90;;;;;;5095818;28;20057;-76
2024/01/05 01:19:10;;;;;;;24.83;13.77;;;3.50;99.90;;;;;;5095942;28;20393;-80
2024/01/05 01:21:36;;;;;;;23.67;14.27;;;3.50;99.90;;;;;;5095856;28;20051;-80
2024/01/05 01:24:01;;;;;;;25.87;14.30;;;3.50;99.90;;;;;;5094426;28;20075;-80
2024/01/05 01:26:27;;;;;;;24.13;13.17;;;3.60;99.90;;;;;;5095970;28;20050;-80
2024/01/05 01:28:53;;;;;;;27.10;15.07;;;3.50;99.90;;;;;;5095369;28;20136;-80
2024/01/05 01:31:18;;;;;;;22.23;14.87;;;3.50;99.90;;;;;;5095456;28;20086;-80
2024/01/05 01:33:44;;;;;;;27.67;14.33;;;3.50;99.90;;;;;;5095624;28;20129;-81
2024/01/05 01:36:10;;;;;;;27.83;14.80;;;3.50;99.90;;;;;;5094532;28;20047;-81
2024/01/05 01:38:36;;;;;;;28.23;14.57;;;3.50;99.90;;;;;;5095393;28;20489;-80
2024/01/05 01:41:02;;;;;;;25.50;14.57;;;3.50;99.90;;;;;;5094108;28;20132;-80
2024/01/05 01:43:28;;;;;;;31.07;15.33;;;3.50;99.90;;;;;;5095179;28;20056;-81
2024/01/05 01:45:56;;;;;;;37.90;15.07;;;3.60;99.90;;;;;;5094925;28;20044;-80
2024/01/05 01:48:23;;;;;;;26.55;13.90;;;3.50;99.90;;;;;;5094148;28;20126;-81
2024/01/05 01:50:49;;;;;;;29.73;16.05;;;3.40;99.90;;;;;;5095016;28;20120;-79
2024/01/05 01:53:18;;;;;;;26.88;15.13;;;3.40;99.90;;;;;;5094123;28;20049;-80
2024/01/05 01:55:46;;;;;;;28.52;14.98;;;3.50;99.90;;;;;;5095144;28;20082;-80
2024/01/05 01:58:14;;;;;;;32.50;16.27;;;3.40;99.90;;;;;;5093886;28;20044;-80
2024/01/05 02:00:40;;;;;;;29.58;16.13;;;3.40;99.90;;;;;;5095219;28;20101;-80
2024/01/05 02:03:05;;;;;;;28.87;15.63;;;3.60;99.90;;;;;;5094996;28;20545;-80
2024/01/05 02:05:31;;;;;;;32.20;16.30;;;3.50;99.90;;;;;;5094954;28;20044;-80
2024/01/05 02:07:57;;;;;;;33.27;17.97;;;3.50;99.90;;;;;;5094565;28;20083;-80
2024/01/05 02:10:23;;;;;;;31.60;18.27;;;3.50;99.90;;;;;;5092865;28;20115;-80
2024/01/05 02:12:50;;;;;;;33.60;18.15;;;3.40;99.90;;;;;;5092512;28;20076;-80
2024/01/05 02:15:17;;;;;;;29.60;15.93;;;3.40;99.90;;;;;;5092463;28;20052;-79
2024/01/05 02:17:43;;;;;;;26.40;16.83;;;3.50;99.90;;;;;;5092650;28;20349;-80
2024/01/05 02:20:09;;;;;;;28.30;16.93;;;3.50;99.90;;;;;;5091215;28;20565;-80
2024/01/05 02:22:37;;;;;;;27.33;16.20;;;3.50;99.90;;;;;;5092780;28;20089;-80
2024/01/05 02:25:04;;;;;;;31.67;17.40;;;3.40;99.90;;;;;;5093059;28;20124;-79
2024/01/05 02:27:29;;;;;;;27.70;17.25;;;3.40;99.90;;;;;;5094447;28;20381;-80
2024/01/05 02:29:55;;;;;;;27.57;17.00;;;3.40;99.90;;;;;;5093247;28;20047;-80
2024/01/05 02:32:21;;;;;;;27.23;15.83;;;3.40;99.90;;;;;;5094496;28;20039;-80
2024/01/05 02:34:47;;;;;;;30.50;16.97;;;3.40;99.90;;;;;;5094442;28;20473;-80
2024/01/05 02:37:13;;;;;;;31.50;16.17;;;3.40;99.90;;;;;;5092912;28;20122;-80
2024/01/05 02:39:38;;;;;;;33.33;16.67;;;3.40;99.90;;;;;;5094357;28;20178;-80
2024/01/05 02:42:04;;;;;;;25.97;14.53;;;3.40;99.90;;;;;;5093711;28;20540;-79
2024/01/05 02:44:30;;;;;;;30.77;15.27;;;3.40;99.90;;;;;;5094351;28;20044;-79
2024/01/05 02:46:56;;;;;;;28.87;16.10;;;3.40;99.90;;;;;;5092759;28;20473;-78
2024/01/05 02:49:21;;;;;;;28.30;15.68;;;3.40;99.90;;;;;;5093017;28;20085;-80
2024/01/05 02:51:47;;;;;;;21.73;13.90;;;3.40;99.90;;;;;;5094120;28;20036;-79
2024/01/05 02:54:13;;;;;;;32.50;15.17;;;3.40;99.90;;;;;;5075893;28;20044;-79
2024/01/05 02:56:39;;;;;;;25.30;13.82;;;3.30;99.90;;;;;;5092610;28;20123;-80
2024/01/05 02:59:05;;;;;;;32.23;16.37;;;3.40;99.90;;;;;;5093889;28;20123;-79
2024/01/05 03:01:31;;;;;;;29.67;15.07;;;3.30;99.90;;;;;;5093912;28;20477;-80
2024/01/05 03:04:01;;;;;;;25.60;14.47;;;3.30;99.90;;;;;;5093867;28;20036;-80
2024/01/05 03:06:27;;;;;;;28.02;15.88;;;3.30;99.90;;;;;;5092818;28;20435;-80
2024/01/05 03:08:52;;;;;;;27.80;15.43;;;3.40;99.90;;;;;;5092789;28;20040;-80
2024/01/05 03:11:18;;;;;;;28.97;14.73;;;3.40;99.90;;;;;;5093439;28;20048;-79
2024/01/05 03:13:44;;;;;;;25.83;14.17;;;3.40;99.90;;;;;;5093907;28;20109;-79
2024/01/05 03:16:09;;;;;;;25.03;13.50;;;3.30;99.90;;;;;;5093659;28;20101;-79
2024/01/05 03:18:35;;;;;;;21.83;11.87;;;3.30;99.90;;;;;;5093725;28;20489;-79
2024/01/05 03:21:01;;;;;;;22.40;12.57;;;3.30;99.90;;;;;;5092260;28;20090;-81
2024/01/05 03:23:27;;;;;;;28.42;14.13;;;3.30;99.90;;;;;;5093501;28;20048;-80
2024/01/05 03:25:53;;;;;;;27.77;14.17;;;3.30;99.90;;;;;;5093289;28;20100;-81
2024/01/05 03:28:19;;;;;;;24.85;13.27;;;3.30;99.90;;;;;;5093475;28;20043;-80
2024/01/05 03:30:44;;;;;;;41.60;16.30;;;3.30;99.90;;;;;;5093199;28;20032;-80
2024/01/05 03:33:10;;;;;;;31.40;14.53;;;3.30;99.90;;;;;;5093426;28;20044;-79
2024/01/05 03:35:37;;;;;;;27.97;13.67;;;3.30;99.90;;;;;;5093643;28;20039;-79
2024/01/05 03:38:03;;;;;;;25.77;13.55;;;3.30;99.90;;;;;;5093188;28;20040;-78
2024/01/05 03:40:29;;;;;;;29.10;13.90;;;3.20;99.90;;;;;;5092267;28;20089;-79
2024/01/05 03:42:55;;;;;;;26.37;13.67;;;3.30;99.90;;;;;;5093532;28;20048;-78
2024/01/05 03:45:21;;;;;;;24.55;13.35;;;3.30;99.90;;;;;;5091992;28;20461;-77
2024/01/05 03:47:47;;;;;;;24.27;12.83;;;3.30;99.90;;;;;;5093332;28;20047;-77
2024/01/05 03:50:13;;;;;;;25.47;13.07;;;3.30;99.90;;;;;;5092996;28;20043;-77
2024/01/05 03:52:38;;;;;;;27.43;13.57;;;3.30;99.90;;;;;;5093159;28;20075;-78
2024/01/05 03:55:04;;;;;;;22.93;12.77;;;3.30;99.90;;;;;;5092875;28;20044;-76
2024/01/05 03:57:30;;;;;;;23.80;12.87;;;3.30;99.90;;;;;;5092282;28;20051;-78
2024/01/05 03:59:56;;;;;;;24.15;12.85;;;3.30;99.90;;;;;;5095487;28;20473;-78
2024/01/05 04:02:22;;;;;;;32.00;14.63;;;3.30;99.90;;;;;;5097245;28;20063;-77
2024/01/05 04:04:47;;;;;;;23.70;13.03;;;3.30;99.90;;;;;;5097399;28;20596;-78
2024/01/05 04:07:13;;;;;;;20.53;12.07;;;3.30;99.90;;;;;;5097046;28;20185;-78
2024/01/05 04:09:39;;;;;;;24.40;12.77;;;3.30;99.90;;;;;;5097024;28;20122;-78
2024/01/05 04:12:05;;;;;;;25.93;13.30;;;3.30;99.90;;;;;;5097282;28;20096;-78
2024/01/05 04:14:30;;;;;;;28.37;13.43;;;3.30;99.90;;;;;;5097515;28;20122;-77
2024/01/05 04:16:56;;;;;;;29.40;13.73;;;3.30;99.90;;;;;;5097228;28;20533;-77
2024/01/05 04:19:22;;;;;;;22.53;13.20;;;3.30;99.90;;;;;;5095660;28;20039;-77
2024/01/05 04:21:48;;;;;;;22.45;12.20;;;3.30;99.90;;;;;;5096019;28;20040;-77
2024/01/05 04:24:14;;;;;;;23.30;12.60;;;3.30;99.90;;;;;;5096517;28;20485;-78
2024/01/05 04:26:40;;;;;;;23.07;12.30;;;3.30;99.90;;;;;;5096367;28;20051;-78
2024/01/05 04:29:06;;;;;;;21.80;12.63;;;3.30;99.90;;;;;;5096905;28;20047;-78
2024/01/05 04:31:31;;;;;;;23.00;12.83;;;3.30;99.90;;;;;;5096739;28;20031;-78
2024/01/05 04:33:57;;;;;;;21.97;12.97;;;3.30;99.90;;;;;;5095855;28;20047;-78
2024/01/05 04:36:23;;;;;;;24.43;12.70;;;3.40;99.90;;;;;;5096371;28;20044;-79
2024/01/05 04:38:48;;;;;;;22.90;12.03;;;3.30;99.90;;;;;;5095403;28;20119;-80
2024/01/05 04:41:16;;;;;;;26.33;12.80;;;3.30;99.90;;;;;;5096439;28;20043;-78
2024/01/05 04:43:43;;;;;;;25.48;12.98;;;3.30;99.90;;;;;;5096699;28;20086;-78
2024/01/05 04:46:09;;;;;;;23.15;12.63;;;3.30;99.90;;;;;;5096598;28;20040;-78
2024/01/05 04:48:34;;;;;;;27.60;13.13;;;3.40;99.90;;;;;;5096673;28;20040;-77
2024/01/05 04:51:01;;;;;;;24.40;12.53;;;3.40;99.90;;;;;;5096396;28;20434;-77
2024/01/05 04:53:27;;;;;;;20.83;11.60;;;3.40;99.90;;;;;;5096130;28;20413;-77
2024/01/05 04:55:52;;;;;;;19.37;11.00;;;3.40;99.90;;;;;;5095448;28;20036;-78
2024/01/05 04:58:18;;;;;;;21.53;11.20;;;3.40;99.90;;;;;;5096123;28;20097;-78
2024/01/05 05:00:44;;;;;;;18.95;11.50;;;3.40;99.90;;;;;;5096311;28;20035;-78
2024/01/05 05:03:10;;;;;;;17.97;10.80;;;3.40;99.90;;;;;;5096160;28;20048;-78
2024/01/05 05:05:37;;;;;;;21.27;12.00;;;3.40;99.90;;;;;;5094962;28;20058;-78
2024/01/05 05:08:03;;;;;;;23.40;12.45;;;3.40;99.90;;;;;;5095982;28;20282;-77
2024/01/05 05:10:29;;;;;;;23.20;11.90;;;3.50;99.90;;;;;;5094695;28;20041;-77
2024/01/05 05:12:54;;;;;;;20.60;11.83;;;3.40;99.90;;;;;;5095938;28;20046;-77
2024/01/05 05:15:20;;;;;;;27.73;13.47;;;3.40;99.90;;;;;;5094552;28;20083;-77
2024/01/05 05:17:46;;;;;;;25.47;13.00;;;3.40;99.90;;;;;;5096010;28;20050;-77
2024/01/05 05:20:12;;;;;;;23.07;12.77;;;3.50;99.90;;;;;;5078091;28;20062;-77
2024/01/05 05:22:38;;;;;;;25.17;14.13;;;3.50;99.90;;;;;;5095549;28;20044;-77
2024/01/05 05:25:05;;;;;;;23.92;13.77;;;3.40;99.90;;;;;;5095908;28;20044;-77
2024/01/05 05:27:31;;;;;;;25.30;13.43;;;3.50;99.90;;;;;;5094682;28;20036;-77
2024/01/05 05:29:57;;;;;;;25.27;13.25;;;3.50;99.90;;;;;;5094686;28;20125;-77
2024/01/05 05:32:23;;;;;;;27.10;13.48;;;3.50;99.90;;;;;;5095197;28;20040;-77
2024/01/05 05:34:50;;;;;;;24.02;14.82;;;3.50;99.90;;;;;;5095540;28;20118;-77
2024/01/05 05:37:16;;;;;;;27.67;15.13;;;3.50;99.90;;;;;;5095222;28;20048;-77
2024/01/05 05:39:42;;;;;;;26.75;14.27;;;3.50;99.90;;;;;;5095605;28;20115;-78
2024/01/05 05:42:08;;;;;;;27.30;14.73;;;3.50;99.90;;;;;;5094223;28;20130;-78
2024/01/05 05:44:34;;;;;;;27.73;14.40;;;3.50;99.90;;;;;;5095415;28;20047;-78
2024/01/05 05:46:59;;;;;;;29.33;15.30;;;3.50;99.90;;;;;;5095395;28;20469;-78
2024/01/05 05:49:25;;;;;;;24.97;15.33;;;3.60;99.90;;;;;;5094144;28;20048;-77
2024/01/05 05:51:51;;;;;;;29.27;15.73;;;3.50;99.90;;;;;;5095165;28;20064;-77
2024/01/05 05:54:16;;;;;;;33.17;15.70;;;3.60;99.90;;;;;;5094432;28;20378;-77
2024/01/05 05:56:42;;;;;;;31.13;16.30;;;3.60;99.90;;;;;;5094423;28;20157;-77
2024/01/05 05:59:08;;;;;;;25.40;14.50;;;3.60;99.90;;;;;;5095136;28;20071;-77
2024/01/05 06:01:34;;;;;;;31.40;16.85;;;3.60;99.90;;;;;;5094763;28;20512;-77
2024/01/05 06:04:00;;;;;;;28.10;15.47;;;3.60;99.90;;;;;;5094984;28;20079;-77
2024/01/05 06:06:25;;;;;;;31.47;16.20;;;3.60;99.90;;;;;;5094464;28;20122;-78
2024/01/05 06:08:51;;;;;;;33.63;17.83;;;3.60;99.90;;;;;;5094624;28;20039;-81
2024/01/05 06:11:18;;;;;;;38.50;17.53;;;3.60;99.90;;;;;;5094938;28;20051;-80
2024/01/05 06:13:50;;;;;;;29.10;16.10;;;3.60;99.90;;;;;;5094701;28;20465;-80
2024/01/05 06:16:16;;;;;;;26.95;15.45;;;3.70;99.90;;;;;;5094809;28;20150;-80
2024/01/05 06:18:42;;;;;;;36.57;17.00;;;3.60;99.90;;;;;;5093355;28;20119;-79
2024/01/05 06:21:08;;;;;;;32.20;16.42;;;3.70;99.90;;;;;;5094500;28;20119;-78
2024/01/05 06:23:34;;;;;;;31.92;17.02;;;3.70;99.90;;;;;;5094141;28;20508;-78
2024/01/05 06:26:00;;;;;;;31.47;16.33;;;3.70;99.90;;;;;;5093502;28;20127;-78
2024/01/05 06:28:26;;;;;;;26.87;15.40;;;3.70;99.90;;;;;;5093340;28;20048;-78
2024/01/05 06:30:52;;;;;;;31.90;16.08;;;3.70;99.90;;;;;;5093123;28;20035;-78
2024/01/05 06:33:18;;;;;;;32.13;16.80;;;3.70;99.90;;;;;;5094540;28;20036;-79
2024/01/05 06:35:43;;;;;;;29.30;16.20;;;3.80;99.90;;;;;;5094058;28;20109;-78
2024/01/05 06:38:09;;;;;;;32.87;17.03;;;3.70;99.90;;;;;;5094511;28;20127;-78
2024/01/05 06:40:35;;;;;;;34.77;17.27;;;3.70;99.90;;;;;;5094146;28;20032;-78
2024/01/05 06:43:00;;;;;;;34.37;17.27;;;3.70;99.90;;;;;;5094316;28;20060;-78
2024/01/05 06:45:26;;;;;;;38.67;18.30;;;3.80;99.90;;;;;;5093910;28;20509;-77
2024/01/05 06:47:53;;;;;;;27.95;16.63;;;3.80;99.90;;;;;;5094082;28;20048;-78
2024/01/05 06:50:18;;;;;;;31.70;16.93;;;3.80;99.90;;;;;;5093915;28;20043;-79
2024/01/05 06:52:44;;;;;;;36.57;17.47;;;3.80;99.90;;;;;;5093931;28;20106;-78
2024/01/05 06:55:10;;;;;;;35.30;17.23;;;3.80;99.90;;;;;;5093308;28;20052;-78
2024/01/05 06:57:36;;;;;;;38.63;18.47;;;3.80;99.90;;;;;;5093682;28;20040;-78
2024/01/05 07:00:06;;;;;;;40.05;18.35;;;3.80;99.90;;;;;;5094115;28;20044;-78
2024/01/05 07:02:32;;;;;;;34.30;17.10;;;3.80;99.90;;;;;;5092736;28;20040;-78
2024/01/05 07:04:57;;;;;;;37.07;18.13;;;3.80;99.90;;;;;;5075834;28;20047;-78
2024/01/05 07:07:24;;;;;;;28.97;16.30;;;3.80;99.90;;;;;;5093924;28;20073;-79
2024/01/05 07:09:49;;;;;;;35.22;17.83;;;3.80;99.90;;;;;;5093632;28;20036;-79
2024/01/05 07:12:15;;;;;;;30.80;17.03;;;3.90;99.90;;;;;;5093775;28;20051;-79
2024/01/05 07:14:41;;;;;;;33.37;16.47;;;3.90;99.90;;;;;;5093479;28;20054;-79
2024/01/05 07:17:06;;;;;;;37.13;16.83;;;3.90;99.90;;;;;;5093570;28;20039;-79
2024/01/05 07:19:32;;;;;;;32.17;16.97;;;3.90;99.90;;;;;;5093251;28;20121;-78
2024/01/05 07:21:58;;;;;;;32.13;16.73;;;3.90;99.90;;;;;;5092778;28;20413;-80
2024/01/05 07:24:24;;;;;;;31.20;17.30;;;3.90;99.90;;;;;;5093685;28;20036;-80
2024/01/05 07:26:50;;;;;;;32.97;16.33;;;3.90;99.90;;;;;;5093423;28;20046;-79
2024/01/05 07:29:15;;;;;;;31.63;17.60;;;3.90;99.90;;;;;;5092430;28;20040;-79
2024/01/05 07:31:41;;;;;;;31.77;16.73;;;4.00;99.90;;;;;;5093383;28;20055;-79
2024/01/05 07:34:07;;;;;;;34.03;17.47;;;3.90;99.90;;;;;;5091615;28;20392;-78
2024/01/05 07:36:33;;;;;;;35.23;18.00;;;4.00;99.90;;;;;;5093380;28;20048;-78
2024/01/05 07:39:01;;;;;;;32.93;17.60;;;3.90;99.90;;;;;;5093556;28;20538;-78
2024/01/05 07:41:27;;;;;;;33.55;17.35;;;4.00;99.90;;;;;;5092398;28;20093;-78
2024/01/05 07:43:53;;;;;;;32.87;17.73;;;4.00;99.90;;;;;;5093144;28;20040;-79
2024/01/05 07:46:19;;;;;;;31.93;17.33;;;4.00;99.90;;;;;;5093250;28;20051;-78
2024/01/05 07:48:46;;;;;;;32.28;17.08;;;4.00;99.90;;;;;;5092881;28;20056;-77
2024/01/05 07:51:13;;;;;;;31.23;16.65;;;4.00;99.90;;;;;;5093329;28;20473;-78
2024/01/05 07:53:39;;;;;;;30.48;17.13;;;4.00;99.90;;;;;;5093275;28;20039;-78
2024/01/05 07:56:05;;;;;;;29.90;17.20;;;4.00;99.90;;;;;;5093345;28;20515;-79
2024/01/05 07:58:31;;;;;;;30.02;16.55;;;4.00;99.90;;;;;;5092028;28;20101;-80
2024/01/05 08:00:57;;;;;;;29.93;17.27;;;4.00;99.90;;;;;;5092903;28;20125;-77
2024/01/05 08:03:23;;;;;;;31.25;16.92;;;4.10;99.90;;;;;;5092000;28;20492;-78
2024/01/05 08:05:49;;;;;;;34.07;17.20;;;4.10;99.90;;;;;;5091755;28;20036;-77
2024/01/05 08:08:15;;;;;;;36.13;17.60;;;4.10;99.90;;;;;;5093195;28;20032;-77
2024/01/05 08:10:40;;;;;;;32.60;18.20;;;4.10;99.90;;;;;;5092741;28;20085;-78
2024/01/05 08:13:06;;;;;;;35.13;18.13;;;4.10;99.90;;;;;;5092039;28;20385;-79
2024/01/05 08:15:32;;;;;;;34.13;18.57;;;4.10;99.90;;;;;;5093048;28;20082;-79
2024/01/05 08:17:58;;;;;;;41.47;19.53;;;4.10;99.90;;;;;;5092664;28;20040;-79
2024/01/05 08:20:24;;;;;;;44.25;19.88;;;4.10;99.90;;;;;;5093230;28;20035;-76
2024/01/05 08:22:50;;;;;;;41.43;20.23;;;4.20;99.90;;;;;;5092809;28;20105;-77
2024/01/05 08:25:16;;;;;;;39.90;20.10;;;4.10;99.90;;;;;;5091988;28;20121;-77
2024/01/05 08:27:43;;;;;;;43.78;20.90;;;4.10;99.90;;;;;;5091494;28;20078;-77
2024/01/05 08:30:14;;;;;;;44.17;20.00;;;4.20;99.90;;;;;;5092712;28;20036;-78
2024/01/05 08:32:43;;;;;;;37.20;20.35;;;4.20;99.90;;;;;;5092730;28;20047;-77
2024/01/05 08:35:09;;;;;;;41.90;21.83;;;4.20;99.90;;;;;;5092952;28;20071;-78
2024/01/05 08:37:34;;;;;;;44.93;21.73;;;4.20;99.90;;;;;;5092860;28;20460;-78
2024/01/05 08:40:01;;;;;;;51.20;22.03;;;4.30;99.90;;;;;;5092565;28;20043;-80
2024/01/05 08:42:27;;;;;;;44.38;22.27;;;4.30;99.90;;;;;;5091473;28;20087;-78
2024/01/05 08:44:53;;;;;;;48.88;22.45;;;4.30;99.90;;;;;;5093003;28;20040;-77
2024/01/05 08:47:19;;;;;;;44.97;22.17;;;4.30;99.90;;;;;;5096703;28;20101;-80
2024/01/05 08:49:44;;;;;;;47.03;24.80;;;4.40;99.90;;;;;;5096446;28;20043;-78
2024/01/05 08:52:10;;;;;;;47.00;22.07;;;4.40;99.90;;;;;;5096717;28;20465;-78
2024/01/05 08:54:39;;;;;;;48.23;22.57;;;4.40;99.90;;;;;;5096331;28;20102;-77
2024/01/05 08:57:07;;;;;;;48.38;22.55;;;4.40;99.90;;;;;;5096286;28;20130;-80
2024/01/05 08:59:33;;;;;;;57.92;23.40;;;4.40;99.90;;;;;;5095252;28;20079;-79
2024/01/05 09:01:59;;;;;;;48.80;23.00;;;4.50;99.90;;;;;;5096199;28;20055;-77
2024/01/05 09:04:25;;;;;;;46.20;22.30;;;4.50;99.90;;;;;;5096721;28;20040;-77
2024/01/05 09:06:51;;;;;;;45.00;22.33;;;4.50;99.90;;;;;;5095897;28;20473;-76
2024/01/05 09:09:16;;;;;;;54.38;23.92;;;4.50;99.90;;;;;;5096446;28;20373;-76
2024/01/05 09:11:42;;;;;;;48.67;23.00;;;4.50;99.90;;;;;;5096032;28;20040;-76
2024/01/05 09:14:08;;;;;;;43.70;21.77;;;4.50;99.90;;;;;;5095884;28;20043;-76
2024/01/05 09:16:34;;;;;;;45.93;22.33;;;4.60;99.90;;;;;;5096076;28;20051;-75
2024/01/05 09:18:59;;;;;;;53.90;23.80;;;4.60;99.90;;;;;;5095653;28;20075;-76
2024/01/05 09:21:25;;;;;;;50.43;23.47;;;4.60;99.90;;;;;;5095924;28;20040;-76
2024/01/05 09:23:51;;;;;;;52.80;23.37;;;4.60;99.90;;;;;;5095669;28;20044;-75
2024/01/05 09:26:17;;;;;;;44.27;22.37;;;4.70;99.90;;;;;;5095906;28;20039;-77
2024/01/05 09:28:43;;;;;;;49.85;22.67;;;4.70;99.90;;;;;;5095684;28;20131;-78
2024/01/05 09:31:12;;;;;;;51.42;24.85;;;4.70;99.90;;;;;;5095766;28;20461;-78
2024/01/05 09:33:38;;;;;;;49.58;22.88;;;4.70;99.90;;;;;;5096008;28;20072;-75
2024/01/05 09:36:04;;;;;;;40.57;21.30;;;4.70;99.90;;;;;;5095481;28;20971;-75
2024/01/05 09:38:30;;;;;;;55.40;23.23;;;4.70;99.90;;;;;;5095619;28;20068;-77
2024/01/05 09:40:56;;;;;;;48.83;22.73;;;4.80;99.90;;;;;;5095332;28;20276;-75
2024/01/05 09:43:22;;;;;;;53.17;22.37;;;4.70;99.90;;;;;;5095544;28;20054;-75
2024/01/05 09:45:50;;;;;;;48.42;21.92;;;4.70;99.90;;;;;;5095268;28;20076;-74
2024/01/05 09:48:20;;;;;;;46.53;21.20;;;4.80;99.90;;;;;;5095442;28;20040;-75
2024/01/05 09:50:51;;;;;;;45.63;21.13;;;4.80;99.90;;;;;;5095190;28;20040;-74
2024/01/05 09:53:18;;;;;;;48.40;21.27;;;4.80;99.90;;;;;;5095235;28;20044;-75
2024/01/05 09:55:47;;;;;;;37.92;20.45;;;4.80;99.90;;;;;;5095141;28;20094;-75
2024/01/05 09:58:17;;;;;;;43.10;21.33;;;4.80;99.90;;;;;;5094645;28;20389;-74
2024/01/05 10:00:50;;;;;;;46.92;21.13;;;4.90;99.90;;;;;;5095148;28;20075;-74
2024/01/05 10:03:24;;;;;;;42.80;19.52;;;4.90;99.90;;;;;;5095203;28;20052;-74
2024/01/05 10:05:53;;;;;;;40.53;20.73;;;4.90;99.90;;;;;;5094826;28;20051;-76
2024/01/05 10:08:22;;;;;;;39.72;19.98;;;5.00;99.90;;;;;;5094032;28;20079;-76
2024/01/05 10:10:53;;;;;;;47.55;20.35;;;4.90;99.90;;;;;;5094824;28;20036;-75
2024/01/05 10:13:18;;;;;;;39.17;20.20;;;4.90;99.90;;;;;;5094080;28;20477;-77
2024/01/05 10:16:02;;;;;;;35.03;18.00;;;5.00;99.90;;;;;;5094908;28;20036;-75
2024/01/05 10:18:29;;;;;;;35.97;18.85;;;5.00;99.90;;;;;;5094924;28;20036;-76
2024/01/05 10:20:57;;;;;;;30.35;17.67;;;5.00;99.90;;;;;;5094395;28;20085;-76
2024/01/05 10:23:23;;;;;;;34.17;18.98;;;5.00;99.90;;;;;;5094808;28;20056;-76
2024/01/05 10:25:51;;;;;;;33.58;17.90;;;5.00;99.90;;;;;;5094889;28;20128;-78
2024/01/05 10:28:26;;;;;;;30.33;16.85;;;5.00;99.90;;;;;;5094726;28;20055;-79
2024/01/05 10:30:52;;;;;;;33.45;17.73;;;5.00;99.90;;;;;;5094368;28;20043;-76
2024/01/05 10:33:19;;;;;;;34.90;17.77;;;5.00;99.90;;;;;;5094430;28;20035;-78
2024/01/05 10:35:45;;;;;;;36.15;18.23;;;5.00;99.90;;;;;;5094631;28;20416;-78
2024/01/05 10:38:14;;;;;;;36.65;18.50;;;5.10;99.90;;;;;;5093392;28;20056;-76
2024/01/05 10:40:40;;;;;;;37.85;18.25;;;5.10;99.90;;;;;;5094364;28;20047;-76
2024/01/05 10:43:14;;;;;;;34.80;17.77;;;5.10;99.90;;;;;;5094169;28;20052;-80
2024/01/05 10:45:41;;;;;;;38.53;17.85;;;5.20;99.90;;;;;;5094268;28;20229;-75
2024/01/05 10:48:09;;;;;;;33.75;17.25;;;5.20;99.90;;;;;;5093904;28;20044;-74
2024/01/05 10:50:37;;;;;;;39.33;18.00;;;5.20;99.90;;;;;;5094297;28;20086;-77
2024/01/05 10:53:04;;;;;;;40.65;19.58;;;5.20;99.90;;;;;;5092399;28;20047;-75
2024/01/05 10:55:35;;;;;;;43.15;19.45;;;5.20;99.90;;;;;;5093581;28;20040;-77
2024/01/05 10:58:01;;;;;;;39.90;18.48;;;5.20;99.90;;;;;;5093387;28;20389;-79
2024/01/05 11:00:27;;;;;;;37.67;18.50;;;5.30;99.90;;;;;;5093324;28;20044;-77
2024/01/05 11:03:06;;;;;;;45.80;20.50;;;5.40;99.90;;;;;;5093596;28;20043;-78
2024/01/05 11:05:32;;;;;;;40.80;19.75;;;5.40;99.90;;;;;;5091010;28;20067;-78
2024/01/05 11:08:00;;;;;;;36.38;19.10;;;5.40;99.90;;;;;;5092225;28;20106;-78
2024/01/05 11:11:07;;;;;;;43.47;20.05;;;5.40;99.90;;;;;;5091749;28;20105;-76
2024/01/05 11:13:32;;;;;;;41.20;19.45;;;5.40;99.90;;;;;;5093488;28;20036;-77
2024/01/05 11:16:20;;;;;;;38.93;19.63;;;5.40;99.90;;;;;;5092630;28;20093;-75
2024/01/05 11:18:51;;;;;;;31.25;17.08;;;5.50;99.90;;;;;;5091170;28;20479;-78
2024/01/05 11:21:22;;;;;;;36.55;18.75;;;5.40;99.90;;;;;;5092861;28;20036;-76
2024/01/05 11:23:49;;;;;;;37.47;18.77;;;5.50;99.90;;;;;;5093339;28;20040;-78
2024/01/05 11:26:35;;;;;;;34.50;18.27;;;5.40;99.90;;;;;;5093082;28;20043;-74
2024/01/05 11:29:04;;;;;;;32.55;16.75;;;5.50;99.90;;;;;;5092319;28;20056;-76
2024/01/05 11:31:45;;;;;;;41.65;18.52;;;5.50;99.90;;;;;;5093519;28;20062;-74
2024/01/05 11:34:30;;;;;;;45.30;19.67;;;5.50;99.90;;;;;;5093408;28;20051;-74
2024/01/05 11:36:57;;;;;;;22.27;13.15;;;5.50;99.90;;;;;;5093451;28;20051;-73
2024/01/05 11:39:45;;;;;;;33.72;18.00;;;5.50;99.90;;;;;;5093165;28;20181;-75
2024/01/05 11:42:29;;;;;;;43.28;19.77;;;5.50;99.90;;;;;;5092995;28;20472;-74
2024/01/05 11:44:58;;;;;;;37.65;19.67;;;5.60;99.90;;;;;;5092254;28;20051;-74
2024/01/05 11:47:44;;;;;;;32.50;17.92;;;5.60;99.90;;;;;;5093474;28;20046;-76
2024/01/05 11:50:33;;;;;;;33.95;18.08;;;5.60;99.90;;;;;;5091873;28;20046;-75
2024/01/05 11:53:24;;;;;;;45.60;19.35;;;5.60;99.90;;;;;;5093613;28;20040;-75
2024/01/05 11:55:52;;;;;;;32.80;17.15;;;5.70;99.90;;;;;;5093447;28;20402;-75
2024/01/05 11:58:22;;;;;;;30.92;17.38;;;5.60;99.90;;;;;;5092942;28;20039;-76
2024/01/05 12:00:50;;;;;;;31.25;17.33;;;5.70;99.90;;;;;;5093146;28;20040;-75
2024/01/05 12:03:17;;;;;;;32.63;19.05;;;5.70;99.90;;;;;;5093079;28;20042;-75
2024/01/05 12:05:43;;;;;;;33.50;18.55;;;5.70;99.90;;;;;;5093248;28;20044;-76
2024/01/05 12:08:13;;;;;;;31.65;19.02;;;5.70;99.90;;;;;;5093145;28;20385;-76
2024/01/05 12:10:40;;;;;;;30.50;17.40;;;5.70;99.90;;;;;;5093042;28;20479;-73
2024/01/05 12:13:06;;;;;;;41.10;19.30;;;5.70;99.90;;;;;;5092857;28;20044;-75
2024/01/05 12:15:33;;;;;;;33.20;17.27;;;5.70;99.90;;;;;;5091698;28;20044;-77
2024/01/05 12:18:09;;;;;;;34.25;18.30;;;5.70;99.90;;;;;;5093056;28;20055;-77
2024/01/05 12:20:35;;;;;;;32.15;17.02;;;5.70;99.90;;;;;;5094462;28;20040;-75
2024/01/05 12:23:01;;;;;;;41.13;19.10;;;5.70;99.90;;;;;;5096790;28;20052;-75
2024/01/05 12:25:27;;;;;;;32.80;18.00;;;5.70;99.90;;;;;;5096674;28;20075;-75
2024/01/05 12:27:53;;;;;;;35.17;19.00;;;5.70;99.90;;;;;;5096730;28;20505;-76
2024/01/05 12:30:21;;;;;;;34.40;18.35;;;5.80;99.90;;;;;;5096363;28;20293;-75
2024/01/05 12:32:49;;;;;;;35.42;17.40;;;5.80;99.90;;;;;;5096605;28;20513;-76
2024/01/05 12:35:16;;;;;;;41.42;18.25;;;5.70;99.90;;;;;;5096662;28;20438;-76